Portada
METAR-TAF:

METAR-TAF

Aeroports :

Benarés, Índia

latitud: 25-27N, longitud: 082-52E, altitud: 81 m

Observació

L'informe es va fer fa 17 minuts, a les 14:00 UTC
Vent 3 kt del Oest
Temperatura 15°C
Humitat 77%
Pressió 1018 hPa
Visibilitat: 3000 m
Escasses núvols a una alçada de 10000 ft
calitja

METAR: VEBN 201400Z 27003KT 3000 HZ FEW100 15/11 Q1018 NOSIG

Hora: 19:47 (14:17 UTC)

Pronòstic

L'informe es va fer fa 3 hores i 17 minuts, a les 11:00 UTC
Pronòstic vàlid del 20 a les 12 UTC al 20 a les 21 UTC
Vent 5 kt del Oest/Nord-Oest
Visibilitat: 3000 m
Escasses núvols a una alçada de 2500 ft
Núvols disperses a una alçada de 10000 ft
calitja
Evolucionant progressivament
l' 20 a les 19 UTC al 20 a les 21 UTC
Vent kt del Nord
Visibilitat: 1500 m
boirina

TAF: VEBN 201100Z 2012/2021 29005KT 3000 HZ FEW025 SCT100 BECMG 2019/2021 00000KT 1500 BR

Observacions i pronòstics meteorològics de més de 4000 aeroports (METAR i TAF).

Les estacions disponibles són els punts grocs i vermells al mapa.

Posi el ratolí al punt desitjat per veure el nom de l'estació.

Feu clic per veure les observacions i els pronòstics meteorològics.

Per canviar el mapa: feu clic els botons verds amb una creu de color negre per apropar; al botó verd amb un guió per allunyar la imatge; o en les fletxes verdes per a mapes adjacents.


METAR-TAF: